PrinceSS Juana K — HPFV — position and weather

sailwx.info

Track history (hours):
 
Tides and Currents Weather Stations Pressure Air Temp Water Temp Dewpoint Dewpoint Depression Visibility Wind Speed Wind Dir Waves Ship Positions

PrinceSS Juana K

Last reported at 2014-Sep-22 08:06 UTC. Time now 2014-Sep-22 14:16 UTC.
Position N 40°58' E 028°54'.

Length 145 m; draft 5.2 m.

Type: Cargo ship. MMSI: 352982000.

Date/timePositionNaut miles runAvg speedWind from/ knotsBaromVisibWave heightAir tempDewpointWater temp
2014-Sep-22 08:06N 40°58' E 028°54'0 0.0
2014-Sep-22 07:32N 40°58' E 028°54'1 0.5
2014-Sep-22 06:27N 40°58' E 028°55'4 4.7
2014-Sep-22 05:33N 40°54' E 028°55'9 8.5
2014-Sep-22 04:32N 40°51' E 028°44'175 6.5
2014-Sep-21 01:31N 39°02' E 025°46'8 8.8
2014-Sep-21 00:33N 38°53' E 025°47'9 8.7
2014-Sep-20 23:33N 38°45' E 025°47'9 8.8
2014-Sep-20 22:33N 38°36' E 025°46'9 8.4
2014-Sep-20 21:28N 38°27' E 025°47'7 8.1
2014-Sep-20 20:33N 38°19' E 025°47'47 7.9
2014-Sep-20 14:33N 37°32' E 025°55'7 6.6
2014-Sep-20 13:33N 37°26' E 025°59'7 7.4
2014-Sep-20 12:33N 37°21' E 026°05'8 7.8
2014-Sep-20 11:33N 37°16' E 026°13'8 7.8
2014-Sep-20 10:33N 37°11' E 026°20'7 6.9
2014-Sep-20 09:33N 37°07' E 026°27'  
2014-Sep-16 15:12N 31°35' E 031°45'0 0.0
2014-Sep-16 12:29N 31°34' E 031°45'0 0.0
2014-Sep-15 14:32N 31°35' E 031°45'0 0.0
2014-Sep-15 12:31N 31°35' E 031°45'  
Track history (hours):
 
Tides and Currents Weather Stations Pressure Air Temp Water Temp Dewpoint Dewpoint Depression Visibility Wind Speed Wind Dir Waves Ship Positions

PrinceSS Juana K

Last reported at 2014-Sep-22 08:06 UTC. Time now 2014-Sep-22 14:16 UTC.
Position N 40°58' E 028°54'.

Length 145 m; draft 5.2 m.

Type: Cargo ship. MMSI: 352982000.

Date/timePositionNaut miles runAvg speedWind from/ knotsBaromVisibWave heightAir tempDewpointWater temp
2014-Sep-22 08:06N 40°58' E 028°54'0 0.0
2014-Sep-22 07:32N 40°58' E 028°54'1 0.5
2014-Sep-22 06:27N 40°58' E 028°55'4 4.7
2014-Sep-22 05:33N 40°54' E 028°55'9 8.5
2014-Sep-22 04:32N 40°51' E 028°44'175 6.5
2014-Sep-21 01:31N 39°02' E 025°46'8 8.8
2014-Sep-21 00:33N 38°53' E 025°47'9 8.7
2014-Sep-20 23:33N 38°45' E 025°47'9 8.8
2014-Sep-20 22:33N 38°36' E 025°46'9 8.4
2014-Sep-20 21:28N 38°27' E 025°47'7 8.1
2014-Sep-20 20:33N 38°19' E 025°47'47 7.9
2014-Sep-20 14:33N 37°32' E 025°55'7 6.6
2014-Sep-20 13:33N 37°26' E 025°59'7 7.4
2014-Sep-20 12:33N 37°21' E 026°05'8 7.8
2014-Sep-20 11:33N 37°16' E 026°13'8 7.8
2014-Sep-20 10:33N 37°11' E 026°20'7 6.9
2014-Sep-20 09:33N 37°07' E 026°27'  
2014-Sep-16 15:12N 31°35' E 031°45'0 0.0
2014-Sep-16 12:29N 31°34' E 031°45'0 0.0
2014-Sep-15 14:32N 31°35' E 031°45'0 0.0
2014-Sep-15 12:31N 31°35' E 031°45'  

Dump ship's entire track history